Time;durP1;ratioP1;P1;durP2;ratioP2;P2;SDS_P1;SDS_P2;PMS_P1;PMS_P2;Temp;Humidity;BMP_temperature;BMP_pressure;BME280_temperature;BME280_humidity;BME280_pressure;Samples;Min_cycle;Max_cycle;Signal;HPM_P1;HPM_P2
2023/08/21 00:01:36;;;;;;;914.10;647.72;;;;;;;;;;5085834;28;20017;-61
2023/08/21 00:04:01;;;;;;;905.92;603.85;;;;;;;;;;5086225;28;20043;-56
2023/08/21 00:06:26;;;;;;;907.03;591.55;;;;;;;;;;5084683;28;20036;-59
2023/08/21 00:08:51;;;;;;;914.10;636.67;;;;;;;;;;5085893;28;20393;-61
2023/08/21 00:11:17;;;;;;;915.47;657.87;;;;;;;;;;5085283;28;20251;-58
2023/08/21 00:13:44;;;;;;;913.60;652.80;;;;;;;;;;5085700;28;20263;-58
2023/08/21 00:16:10;;;;;;;915.65;652.90;;;;;;;;;;5085198;28;20024;-60
2023/08/21 00:18:35;;;;;;;913.03;639.67;;;;;;;;;;5085417;28;20024;-57
2023/08/21 00:21:01;;;;;;;911.83;645.70;;;;;;;;;;5085436;28;20062;-61
2023/08/21 00:23:27;;;;;;;909.20;639.40;;;;;;;;;;5079140;28;20808;-61
2023/08/21 00:25:52;;;;;;;908.70;639.83;;;;;;;;;;5066843;28;20029;-60
2023/08/21 00:28:17;;;;;;;911.20;642.88;;;;;;;;;;5066199;28;20250;-61
2023/08/21 00:30:42;;;;;;;910.70;651.30;;;;;;;;;;5066654;28;20131;-61
2023/08/21 00:33:08;;;;;;;904.90;643.20;;;;;;;;;;5078288;28;20591;-58
2023/08/21 00:35:33;;;;;;;906.40;649.10;;;;;;;;;;5085545;28;20275;-57
2023/08/21 00:37:58;;;;;;;905.07;638.87;;;;;;;;;;5084706;28;20696;-59
2023/08/21 00:40:23;;;;;;;913.50;642.53;;;;;;;;;;5085414;28;20261;-61
2023/08/21 00:42:49;;;;;;;908.70;638.20;;;;;;;;;;5084475;28;20392;-59
2023/08/21 00:45:14;;;;;;;908.40;641.28;;;;;;;;;;5086370;28;20618;-57
2023/08/21 00:47:39;;;;;;;911.95;645.30;;;;;;;;;;5084922;28;20052;-60
2023/08/21 00:50:06;;;;;;;906.03;640.22;;;;;;;;;;5086186;28;20164;-60
2023/08/21 00:52:32;;;;;;;902.70;636.50;;;;;;;;;;5083961;28;20076;-61
2023/08/21 00:54:57;;;;;;;911.05;631.20;;;;;;;;;;5086062;28;20607;-61
2023/08/21 00:57:23;;;;;;;912.55;644.70;;;;;;;;;;5075773;28;20021;-58
2023/08/21 00:59:48;;;;;;;910.65;640.47;;;;;;;;;;5085361;28;20504;-59
2023/08/21 01:02:14;;;;;;;907.88;644.97;;;;;;;;;;5085425;28;20030;-61
2023/08/21 01:04:39;;;;;;;904.13;609.03;;;;;;;;;;5083241;28;20374;-59
2023/08/21 01:07:09;;;;;;;907.65;624.75;;;;;;;;;;5084704;28;20020;-59
2023/08/21 01:09:54;;;;;;;909.03;623.58;;;;;;;;;;5085545;28;20028;-58
2023/08/21 01:12:24;;;;;;;903.80;622.80;;;;;;;;;;5084141;28;20109;-61
2023/08/21 01:14:55;;;;;;;907.58;625.90;;;;;;;;;;5086001;28;20047;-58
2023/08/21 01:17:22;;;;;;;909.10;632.28;;;;;;;;;;5083292;28;20134;-59
2023/08/21 01:19:48;;;;;;;910.33;646.00;;;;;;;;;;5085750;28;20020;-57
2023/08/21 01:22:14;;;;;;;905.50;632.90;;;;;;;;;;5081463;28;20036;-61
2023/08/21 01:24:39;;;;;;;909.28;645.13;;;;;;;;;;5085717;28;20149;-58
2023/08/21 01:27:04;;;;;;;907.20;634.73;;;;;;;;;;5083802;28;20024;-60
2023/08/21 01:29:30;;;;;;;903.95;633.35;;;;;;;;;;5085772;28;20351;-58
2023/08/21 01:31:55;;;;;;;909.03;643.22;;;;;;;;;;5083810;28;20028;-60
2023/08/21 01:34:21;;;;;;;901.70;635.13;;;;;;;;;;5085449;28;20028;-61
2023/08/21 01:36:46;;;;;;;897.22;619.33;;;;;;;;;;5083731;28;20858;-58
2023/08/21 01:39:12;;;;;;;897.95;603.30;;;;;;;;;;5084159;28;20028;-61
2023/08/21 01:41:37;;;;;;;904.50;627.47;;;;;;;;;;5086117;28;20052;-58
2023/08/21 01:44:02;;;;;;;901.67;618.83;;;;;;;;;;5089611;28;20115;-60
2023/08/21 01:46:28;;;;;;;903.70;631.20;;;;;;;;;;5088213;28;20281;-61
2023/08/21 01:48:53;;;;;;;906.05;625.20;;;;;;;;;;5089567;28;20036;-61
2023/08/21 01:51:18;;;;;;;900.77;624.07;;;;;;;;;;5086285;28;20319;-57
2023/08/21 01:53:43;;;;;;;903.90;623.05;;;;;;;;;;5089736;28;20252;-61
2023/08/21 01:56:09;;;;;;;897.90;608.15;;;;;;;;;;5088756;28;20031;-60
2023/08/21 01:58:34;;;;;;;902.17;614.60;;;;;;;;;;5089013;28;20035;-58
2023/08/21 02:00:59;;;;;;;898.70;621.53;;;;;;;;;;5089731;28;20316;-59
2023/08/21 02:03:25;;;;;;;898.17;595.93;;;;;;;;;;5087700;28;20273;-61
2023/08/21 02:05:50;;;;;;;901.22;618.65;;;;;;;;;;5087552;28;20280;-59
2023/08/21 02:08:16;;;;;;;902.63;623.87;;;;;;;;;;5087193;28;20020;-61
2023/08/21 02:10:51;;;;;;;901.80;630.53;;;;;;;;;;5088407;28;20320;-61
2023/08/21 02:13:16;;;;;;;899.67;624.40;;;;;;;;;;5087472;28;20032;-59
2023/08/21 02:15:41;;;;;;;901.15;623.22;;;;;;;;;;5088053;28;20035;-61
2023/08/21 02:18:07;;;;;;;899.73;624.17;;;;;;;;;;5087654;28;20028;-61
2023/08/21 02:20:32;;;;;;;897.60;598.03;;;;;;;;;;5089084;28;20241;-59
2023/08/21 02:22:57;;;;;;;901.60;617.70;;;;;;;;;;5087468;28;20277;-57
2023/08/21 02:25:22;;;;;;;905.85;624.78;;;;;;;;;;5088366;28;20277;-59
2023/08/21 02:27:48;;;;;;;896.40;612.97;;;;;;;;;;5087011;28;20131;-59
2023/08/21 02:30:13;;;;;;;900.25;629.50;;;;;;;;;;5085836;28;20287;-58
2023/08/21 02:32:40;;;;;;;902.13;620.65;;;;;;;;;;5086291;28;20473;-61
2023/08/21 02:35:05;;;;;;;898.08;618.05;;;;;;;;;;5088808;28;20440;-59
2023/08/21 02:37:31;;;;;;;900.15;622.67;;;;;;;;;;5084525;28;20036;-59
2023/08/21 02:39:56;;;;;;;897.80;615.47;;;;;;;;;;5089136;28;20390;-56
2023/08/21 02:42:21;;;;;;;900.80;623.43;;;;;;;;;;5085576;28;20043;-61
2023/08/21 02:44:47;;;;;;;900.25;621.88;;;;;;;;;;5088486;28;20591;-61
2023/08/21 02:47:12;;;;;;;895.92;615.65;;;;;;;;;;5086981;28;20519;-60
2023/08/21 02:49:37;;;;;;;898.05;617.78;;;;;;;;;;5087678;28;20062;-57
2023/08/21 02:52:02;;;;;;;898.97;621.45;;;;;;;;;;5080230;28;20432;-61
2023/08/21 02:54:28;;;;;;;893.47;610.85;;;;;;;;;;5065745;28;20451;-57
2023/08/21 02:56:53;;;;;;;896.28;594.22;;;;;;;;;;5073056;28;20103;-57
2023/08/21 02:59:18;;;;;;;898.92;595.40;;;;;;;;;;5088398;28;20024;-57
2023/08/21 03:01:44;;;;;;;892.33;576.03;;;;;;;;;;5086544;28;20020;-60
2023/08/21 03:04:09;;;;;;;898.10;601.33;;;;;;;;;;5083604;28;20281;-61
2023/08/21 03:06:34;;;;;;;892.90;599.35;;;;;;;;;;5083720;28;20030;-58
2023/08/21 03:08:59;;;;;;;896.37;588.60;;;;;;;;;;5068077;28;20017;-61
2023/08/21 03:11:25;;;;;;;893.13;562.65;;;;;;;;;;5068603;28;20273;-61
2023/08/21 03:13:50;;;;;;;897.20;608.40;;;;;;;;;;5088019;28;20028;-61
2023/08/21 03:16:15;;;;;;;894.67;607.50;;;;;;;;;;5086871;28;20244;-59
2023/08/21 03:19:07;;;;;;;891.53;598.95;;;;;;;;;;5086354;28;20081;-60
2023/08/21 03:21:32;;;;;;;892.55;590.03;;;;;;;;;;5044016;28;20036;-59
2023/08/21 03:23:59;;;;;;;896.03;608.42;;;;;;;;;;5044270;28;20033;-59
2023/08/21 03:26:24;;;;;;;888.00;602.03;;;;;;;;;;5044061;28;20049;-58
2023/08/21 03:28:49;;;;;;;892.33;615.17;;;;;;;;;;5044883;28;20029;-60
2023/08/21 03:31:15;;;;;;;896.28;610.03;;;;;;;;;;5044155;28;20021;-60
2023/08/21 03:33:40;;;;;;;892.97;602.47;;;;;;;;;;5044597;28;20509;-57
2023/08/21 03:36:06;;;;;;;894.00;609.67;;;;;;;;;;5044039;28;20041;-61
2023/08/21 03:38:31;;;;;;;887.20;583.03;;;;;;;;;;5043754;28;20032;-57
2023/08/21 03:40:56;;;;;;;889.60;587.45;;;;;;;;;;5044675;28;20033;-59
2023/08/21 03:43:22;;;;;;;893.03;590.10;;;;;;;;;;5043665;28;20021;-61
2023/08/21 03:45:47;;;;;;;890.63;592.92;;;;;;;;;;5043386;28;20048;-58
2023/08/21 03:48:13;;;;;;;894.80;596.30;;;;;;;;;;5043823;28;20025;-58
2023/08/21 03:50:38;;;;;;;887.97;592.80;;;;;;;;;;5027129;28;20351;-56
2023/08/21 03:53:04;;;;;;;894.33;596.03;;;;;;;;;;5043235;28;20037;-61
2023/08/21 03:55:29;;;;;;;892.75;596.15;;;;;;;;;;5044124;28;20489;-57
2023/08/21 03:57:54;;;;;;;893.65;607.85;;;;;;;;;;5056443;28;20313;-59
2023/08/21 04:00:19;;;;;;;890.08;592.28;;;;;;;;;;5087101;28;20516;-59
2023/08/21 04:02:45;;;;;;;888.55;600.78;;;;;;;;;;5085615;28;20024;-61
2023/08/21 04:05:10;;;;;;;893.00;596.78;;;;;;;;;;5084336;28;20381;-59
2023/08/21 04:07:36;;;;;;;891.53;597.85;;;;;;;;;;5074474;28;20020;-60
2023/08/21 04:10:02;;;;;;;891.80;606.50;;;;;;;;;;5066568;28;20013;-61
2023/08/21 04:12:27;;;;;;;895.47;584.65;;;;;;;;;;5075763;28;20020;-59
2023/08/21 04:14:52;;;;;;;888.28;579.25;;;;;;;;;;5086687;28;20031;-56
2023/08/21 04:17:24;;;;;;;890.17;573.92;;;;;;;;;;5084906;28;20024;-61
2023/08/21 04:19:49;;;;;;;887.53;569.83;;;;;;;;;;5083138;28;20101;-60
2023/08/21 04:22:15;;;;;;;886.95;562.38;;;;;;;;;;5080631;28;20551;-61
2023/08/21 04:24:40;;;;;;;895.20;574.30;;;;;;;;;;5082553;28;20443;-57
2023/08/21 04:27:06;;;;;;;899.67;595.72;;;;;;;;;;5083002;28;20046;-59
2023/08/21 04:29:31;;;;;;;885.83;570.25;;;;;;;;;;5067076;28;20397;-60
2023/08/21 04:31:56;;;;;;;894.37;609.23;;;;;;;;;;5083136;28;20366;-56
2023/08/21 04:34:21;;;;;;;895.08;613.03;;;;;;;;;;5086810;28;20680;-58
2023/08/21 04:36:47;;;;;;;899.85;626.00;;;;;;;;;;5085688;28;20524;-61
2023/08/21 04:39:12;;;;;;;898.23;603.80;;;;;;;;;;5084451;28;20073;-57
2023/08/21 04:41:39;;;;;;;891.70;608.05;;;;;;;;;;5083844;28;20272;-56
2023/08/21 04:44:04;;;;;;;898.50;612.08;;;;;;;;;;5081805;28;20117;-58
2023/08/21 04:46:29;;;;;;;896.85;616.78;;;;;;;;;;5084245;28;20548;-58
2023/08/21 04:48:55;;;;;;;901.45;603.42;;;;;;;;;;5086233;28;20020;-60
2023/08/21 04:51:20;;;;;;;897.97;574.15;;;;;;;;;;5080905;28;20024;-58
2023/08/21 04:53:45;;;;;;;901.73;630.63;;;;;;;;;;5083179;28;20116;-57
2023/08/21 04:56:10;;;;;;;893.03;601.20;;;;;;;;;;5082557;28;20745;-61
2023/08/21 04:58:36;;;;;;;900.65;624.50;;;;;;;;;;5066732;28;20031;-59
2023/08/21 05:01:01;;;;;;;904.88;631.53;;;;;;;;;;5086291;28;20365;-60
2023/08/21 05:03:26;;;;;;;911.43;654.47;;;;;;;;;;5083627;28;20513;-58
2023/08/21 05:05:55;;;;;;;912.85;667.05;;;;;;;;;;5084078;28;20413;-61
2023/08/21 05:08:21;;;;;;;909.53;632.05;;;;;;;;;;5083729;28;20056;-56
2023/08/21 05:10:46;;;;;;;916.60;690.67;;;;;;;;;;5083057;28;20107;-59
2023/08/21 05:13:11;;;;;;;914.83;645.40;;;;;;;;;;5083969;28;20016;-56
2023/08/21 05:15:37;;;;;;;917.70;701.15;;;;;;;;;;5066597;28;20348;-61
2023/08/21 05:18:02;;;;;;;912.30;702.87;;;;;;;;;;5077184;28;20444;-59
2023/08/21 05:20:27;;;;;;;915.75;691.33;;;;;;;;;;5085392;28;20298;-54
2023/08/21 05:22:52;;;;;;;920.15;719.38;;;;;;;;;;5081948;28;20012;-59
2023/08/21 05:25:18;;;;;;;920.17;715.30;;;;;;;;;;5083100;28;20036;-61
2023/08/21 05:27:43;;;;;;;924.25;753.35;;;;;;;;;;5083082;28;20956;-61
2023/08/21 05:30:10;;;;;;;923.37;726.60;;;;;;;;;;5084036;28;20043;-55
2023/08/21 05:32:35;;;;;;;918.63;739.92;;;;;;;;;;5080541;28;20273;-56
2023/08/21 05:35:00;;;;;;;927.73;776.17;;;;;;;;;;5085224;28;20016;-58
2023/08/21 05:37:26;;;;;;;930.40;782.10;;;;;;;;;;5080663;28;20265;-55
2023/08/21 05:39:52;;;;;;;918.20;809.50;;;;;;;;;;5085445;28;20040;-59
2023/08/21 05:42:17;;;;;;;919.70;815.97;;;;;;;;;;5080642;28;20039;-60
2023/08/21 05:44:42;;;;;;;933.53;799.70;;;;;;;;;;5083834;28;20085;-60
2023/08/21 05:47:08;;;;;;;938.43;783.73;;;;;;;;;;5082478;28;20871;-59
2023/08/21 05:49:33;;;;;;;952.57;800.13;;;;;;;;;;5068611;28;20321;-62
2023/08/21 05:51:58;;;;;;;1016.03;903.00;;;;;;;;;;5077386;28;20052;-53
2023/08/21 05:54:25;;;;;;;930.60;827.55;;;;;;;;;;5080708;28;20036;-59
2023/08/21 05:56:50;;;;;;;962.88;846.97;;;;;;;;;;5074306;28;20414;-58
2023/08/21 05:59:27;;;;;;;982.75;875.42;;;;;;;;;;5072656;28;21078;-57
2023/08/21 06:01:52;;;;;;;945.28;841.15;;;;;;;;;;5078194;28;20031;-63
2023/08/21 06:04:18;;;;;;;956.83;853.78;;;;;;;;;;5077937;28;20024;-58
2023/08/21 06:06:43;;;;;;;961.45;858.28;;;;;;;;;;5075146;28;20138;-59
2023/08/21 06:09:09;;;;;;;960.05;857.40;;;;;;;;;;5073238;28;20028;-63
2023/08/21 06:11:34;;;;;;;1030.75;922.72;;;;;;;;;;5042828;28;20040;-58
2023/08/21 06:13:59;;;;;;;1008.63;901.60;;;;;;;;;;5069500;28;20043;-56
2023/08/21 06:16:25;;;;;;;1026.90;875.97;;;;;;;;;;5089062;28;20032;-58
2023/08/21 06:18:53;;;;;;;1024.03;866.80;;;;;;;;;;5079269;28;20025;-58
2023/08/21 06:21:18;;;;;;;1004.95;871.25;;;;;;;;;;5060088;28;20572;-58
2023/08/21 06:23:44;;;;;;;1002.33;864.37;;;;;;;;;;5072546;28;20557;-63
2023/08/21 06:26:09;;;;;;;1006.57;885.70;;;;;;;;;;5073140;28;20109;-59
2023/08/21 06:28:34;;;;;;;1000.07;886.03;;;;;;;;;;5084938;28;20032;-54
2023/08/21 06:31:03;;;;;;;1011.03;899.90;;;;;;;;;;5080127;28;20268;-60
2023/08/21 06:33:28;;;;;;;;;;;;;;;;;;5074251;28;20023;-58
2023/08/21 06:35:53;;;;;;;1008.43;895.47;;;;;;;;;;5075388;28;19912;-57
2023/08/21 06:38:18;;;;;;;1030.60;917.30;;;;;;;;;;5083870;28;20445;-59
2023/08/21 06:40:44;;;;;;;1012.70;900.47;;;;;;;;;;5079627;28;20024;-58
2023/08/21 06:43:10;;;;;;;1023.35;910.85;;;;;;;;;;5081596;28;20279;-62
2023/08/21 06:45:35;;;;;;;1049.53;936.23;;;;;;;;;;5076111;28;20808;-58
2023/08/21 06:48:01;;;;;;;1039.63;925.83;;;;;;;;;;5074836;28;22367;-57
2023/08/21 06:50:26;;;;;;;1112.85;993.75;;;;;;;;;;5080260;28;20046;-55
2023/08/21 06:52:51;;;;;;;1154.50;999.90;;;;;;;;;;5079023;28;20105;-60
2023/08/21 06:55:16;;;;;;;1181.18;999.90;;;;;;;;;;5082895;28;20095;-59
2023/08/21 06:57:42;;;;;;;1062.83;949.03;;;;;;;;;;5071651;28;20052;-57
2023/08/21 07:00:07;;;;;;;1051.20;937.85;;;;;;;;;;5070820;28;20008;-59
2023/08/21 07:02:33;;;;;;;1150.80;999.90;;;;;;;;;;5072377;28;20519;-61
2023/08/21 07:04:58;;;;;;;1078.40;964.17;;;;;;;;;;5077047;28;20131;-59
2023/08/21 07:07:23;;;;;;;1081.57;966.85;;;;;;;;;;5081333;28;20255;-56
2023/08/21 07:09:49;;;;;;;1099.27;984.07;;;;;;;;;;5073407;28;20119;-59
2023/08/21 07:12:15;;;;;;;1085.28;970.50;;;;;;;;;;5079865;28;20280;-61
2023/08/21 07:14:40;;;;;;;1085.60;970.90;;;;;;;;;;5081986;28;20029;-61
2023/08/21 07:17:05;;;;;;;1081.43;967.23;;;;;;;;;;5077260;28;20345;-60
2023/08/21 07:19:30;;;;;;;1109.20;993.67;;;;;;;;;;5078879;28;20021;-61
2023/08/21 07:21:56;;;;;;;1095.03;980.17;;;;;;;;;;5075969;28;20321;-61
2023/08/21 07:24:21;;;;;;;1165.30;999.90;;;;;;;;;;5082714;28;20108;-62
2023/08/21 07:26:46;;;;;;;1129.27;999.90;;;;;;;;;;5069469;28;20512;-59
2023/08/21 07:29:11;;;;;;;1162.23;999.90;;;;;;;;;;5077180;28;20067;-60
2023/08/21 07:31:37;;;;;;;1177.23;999.90;;;;;;;;;;5095140;28;20360;-61
2023/08/21 07:34:02;;;;;;;1204.70;999.90;;;;;;;;;;5075677;28;20031;-55
2023/08/21 07:36:27;;;;;;;1152.70;999.90;;;;;;;;;;5069938;28;20295;-59
2023/08/21 07:38:53;;;;;;;1152.93;999.90;;;;;;;;;;5068594;28;20031;-62
2023/08/21 07:41:18;;;;;;;1127.63;999.90;;;;;;;;;;5074328;28;20261;-60
2023/08/21 07:43:44;;;;;;;1135.10;999.90;;;;;;;;;;5080344;28;20085;-60
2023/08/21 07:46:13;;;;;;;1176.75;999.90;;;;;;;;;;5072022;28;20482;-57
2023/08/21 07:48:38;;;;;;;1142.20;999.90;;;;;;;;;;5071825;28;20386;-58
2023/08/21 07:51:03;;;;;;;1159.47;999.90;;;;;;;;;;5075985;28;20051;-58
2023/08/21 07:53:31;;;;;;;1142.23;999.90;;;;;;;;;;5074856;28;20520;-61
2023/08/21 07:55:56;;;;;;;1149.28;999.90;;;;;;;;;;5075817;28;20393;-60
2023/08/21 07:58:21;;;;;;;1153.25;999.90;;;;;;;;;;5071371;28;20031;-57
2023/08/21 08:00:48;;;;;;;1158.30;999.90;;;;;;;;;;5074231;28;20322;-62
2023/08/21 08:03:14;;;;;;;1163.93;999.90;;;;;;;;;;5077729;28;20231;-55
2023/08/21 08:05:40;;;;;;;1188.97;999.90;;;;;;;;;;5079430;28;20044;-55
2023/08/21 08:08:05;;;;;;;1183.97;999.90;;;;;;;;;;5077892;28;20020;-58
2023/08/21 08:10:30;;;;;;;1186.00;999.90;;;;;;;;;;5077281;28;20111;-61
2023/08/21 08:12:55;;;;;;;1207.77;999.90;;;;;;;;;;5078365;28;20021;-60
2023/08/21 08:15:21;;;;;;;1189.43;999.90;;;;;;;;;;5074267;28;20511;-60
2023/08/21 08:17:47;;;;;;;1180.32;999.90;;;;;;;;;;5071572;28;20669;-62
2023/08/21 08:20:12;;;;;;;1180.63;999.90;;;;;;;;;;5085076;28;20024;-60
2023/08/21 08:22:38;;;;;;;1200.68;999.90;;;;;;;;;;5083013;28;20020;-58
2023/08/21 08:25:05;;;;;;;1191.25;999.90;;;;;;;;;;5081569;28;20028;-57
2023/08/21 08:27:31;;;;;;;1199.22;999.90;;;;;;;;;;5080109;28;20103;-61
2023/08/21 08:29:56;;;;;;;1229.10;999.90;;;;;;;;;;5075702;28;20111;-58
2023/08/21 08:32:21;;;;;;;1210.07;999.90;;;;;;;;;;5081189;28;20028;-58
2023/08/21 08:34:47;;;;;;;1227.87;999.90;;;;;;;;;;5085222;28;20052;-59
2023/08/21 08:37:12;;;;;;;1255.22;999.90;;;;;;;;;;5094840;28;20050;-60
2023/08/21 08:39:37;;;;;;;1245.23;999.90;;;;;;;;;;5082847;28;20031;-58
2023/08/21 08:42:03;;;;;;;1250.50;999.90;;;;;;;;;;5076878;28;20276;-55
2023/08/21 08:44:30;;;;;;;1231.82;999.90;;;;;;;;;;5075749;28;20089;-57
2023/08/21 08:46:55;;;;;;;1240.85;999.90;;;;;;;;;;5092876;28;20040;-60
2023/08/21 08:49:22;;;;;;;1227.15;999.90;;;;;;;;;;5078506;28;20440;-60
2023/08/21 08:51:48;;;;;;;1237.45;999.90;;;;;;;;;;5074941;28;20109;-60
2023/08/21 08:54:14;;;;;;;1242.18;999.90;;;;;;;;;;5073234;28;20063;-61
2023/08/21 08:56:40;;;;;;;1241.70;999.90;;;;;;;;;;5068818;28;20803;-59
2023/08/21 08:59:07;;;;;;;1230.93;999.90;;;;;;;;;;5080259;28;20038;-58
2023/08/21 09:01:33;;;;;;;1225.53;999.90;;;;;;;;;;5084516;28;20017;-59
2023/08/21 09:03:58;;;;;;;1213.88;999.90;;;;;;;;;;5078430;28;20097;-60
2023/08/21 09:06:24;;;;;;;1221.18;999.90;;;;;;;;;;5079560;28;20089;-60
2023/08/21 09:08:56;;;;;;;1220.10;999.90;;;;;;;;;;5085813;28;20020;-57
2023/08/21 09:11:22;;;;;;;1212.57;999.90;;;;;;;;;;5082697;28;20038;-57
2023/08/21 09:13:51;;;;;;;1210.60;999.90;;;;;;;;;;5083158;28;20028;-58
2023/08/21 09:16:20;;;;;;;1214.53;999.90;;;;;;;;;;5079606;28;20016;-60
2023/08/21 09:18:49;;;;;;;1220.70;999.90;;;;;;;;;;5076585;28;20049;-58
2023/08/21 09:21:18;;;;;;;1211.43;999.90;;;;;;;;;;5083694;28;20309;-59
2023/08/21 09:23:44;;;;;;;1214.05;999.90;;;;;;;;;;5086306;28;20212;-59
2023/08/21 09:26:09;;;;;;;1183.57;999.90;;;;;;;;;;5101581;28;20560;-58
2023/08/21 09:28:35;;;;;;;1216.53;999.90;;;;;;;;;;5093957;28;20036;-59
2023/08/21 09:31:00;;;;;;;1114.60;999.90;;;;;;;;;;5104029;28;20059;-60
2023/08/21 09:33:25;;;;;;;1107.63;999.90;;;;;;;;;;5100167;28;20028;-58
2023/08/21 09:35:52;;;;;;;1089.95;986.08;;;;;;;;;;5101558;28;20669;-58
2023/08/21 09:38:18;;;;;;;1077.38;974.50;;;;;;;;;;5084435;28;20497;-59
2023/08/21 09:40:52;;;;;;;1101.43;997.85;;;;;;;;;;5098043;28;20020;-60
2023/08/21 09:43:17;;;;;;;1091.50;987.90;;;;;;;;;;5095649;28;20027;-56
2023/08/21 09:45:45;;;;;;;1121.32;999.90;;;;;;;;;;5103045;28;20558;-60
2023/08/21 09:48:11;;;;;;;;;;;;;;;;;;5102232;28;20484;-59
2023/08/21 09:50:38;;;;;;;1133.23;999.90;;;;;;;;;;5101986;28;19916;-59
2023/08/21 09:53:05;;;;;;;1167.30;999.90;;;;;;;;;;5101293;28;20047;-58
2023/08/21 09:55:32;;;;;;;1070.15;966.58;;;;;;;;;;5103693;28;20019;-59
2023/08/21 09:57:59;;;;;;;1143.72;999.90;;;;;;;;;;5093902;28;20092;-60
2023/08/21 10:00:26;;;;;;;1117.25;999.90;;;;;;;;;;5083692;28;20028;-60
2023/08/21 10:02:53;;;;;;;1093.80;989.78;;;;;;;;;;5079363;28;20032;-59
2023/08/21 10:05:19;;;;;;;1153.10;999.90;;;;;;;;;;5086896;28;20040;-58
2023/08/21 10:07:49;;;;;;;1125.15;999.90;;;;;;;;;;5087263;28;20417;-56
2023/08/21 10:10:14;;;;;;;1054.45;951.95;;;;;;;;;;5085842;28;20039;-59
2023/08/21 10:12:40;;;;;;;1080.25;975.47;;;;;;;;;;5083577;28;20039;-59
2023/08/21 10:15:09;;;;;;;1097.45;991.42;;;;;;;;;;5084946;28;20676;-58
2023/08/21 10:17:35;;;;;;;1099.70;993.85;;;;;;;;;;5079873;28;20863;-57
2023/08/21 10:20:04;;;;;;;1154.85;999.90;;;;;;;;;;5083081;28;20036;-61
2023/08/21 10:22:43;;;;;;;1147.30;999.90;;;;;;;;;;5100349;28;20605;-59
2023/08/21 10:25:15;;;;;;;1154.07;999.90;;;;;;;;;;5103295;28;20019;-62
2023/08/21 10:27:42;;;;;;;1135.45;999.90;;;;;;;;;;5077952;28;20165;-61
2023/08/21 10:30:12;;;;;;;1156.40;999.90;;;;;;;;;;5076910;28;20020;-60
2023/08/21 10:32:44;;;;;;;1106.88;998.47;;;;;;;;;;5070466;28;20038;-59
2023/08/21 10:35:13;;;;;;;1062.68;958.47;;;;;;;;;;5078458;28;20024;-57
2023/08/21 10:37:58;;;;;;;1053.63;953.75;;;;;;;;;;5078909;28;20125;-61
2023/08/21 10:40:24;;;;;;;1052.32;950.03;;;;;;;;;;5079262;28;20106;-61
2023/08/21 10:42:49;;;;;;;1100.05;993.97;;;;;;;;;;5077972;28;20140;-62
2023/08/21 10:45:15;;;;;;;1060.25;955.90;;;;;;;;;;5074000;28;20024;-60
2023/08/21 10:47:40;;;;;;;1060.53;956.93;;;;;;;;;;5035514;28;20039;-59
2023/08/21 10:50:06;;;;;;;1039.25;938.60;;;;;;;;;;5077394;28;20024;-58
2023/08/21 10:52:41;;;;;;;1066.05;962.53;;;;;;;;;;5073603;28;20052;-61
2023/08/21 10:55:07;;;;;;;1040.53;939.30;;;;;;;;;;5081677;28;20107;-57
2023/08/21 10:57:33;;;;;;;1092.40;988.47;;;;;;;;;;5080178;28;20020;-60
2023/08/21 10:59:59;;;;;;;1037.75;935.63;;;;;;;;;;5072647;28;20028;-56
2023/08/21 11:02:26;;;;;;;1045.32;943.83;;;;;;;;;;5074549;28;20316;-59
2023/08/21 11:04:51;;;;;;;1058.35;960.22;;;;;;;;;;5071314;28;20089;-59
2023/08/21 11:07:17;;;;;;;1117.65;999.90;;;;;;;;;;5076245;28;20032;-60
2023/08/21 11:09:43;;;;;;;1140.15;999.90;;;;;;;;;;5080305;28;20063;-60
2023/08/21 11:12:09;;;;;;;1109.40;999.90;;;;;;;;;;5074896;28;20099;-56
2023/08/21 11:14:35;;;;;;;1085.40;980.95;;;;;;;;;;5069923;28;20025;-59
2023/08/21 11:17:00;;;;;;;1070.90;967.65;;;;;;;;;;5075986;28;20043;-61
2023/08/21 11:19:26;;;;;;;1045.05;943.72;;;;;;;;;;5072069;28;20020;-60
2023/08/21 11:21:51;;;;;;;1052.97;952.23;;;;;;;;;;5079399;28;20027;-61
2023/08/21 11:24:16;;;;;;;1054.90;951.97;;;;;;;;;;5068841;28;20040;-58
2023/08/21 11:26:42;;;;;;;1093.67;994.57;;;;;;;;;;5080859;28;20482;-60
2023/08/21 11:29:07;;;;;;;1088.43;987.60;;;;;;;;;;5073647;28;20013;-61
2023/08/21 11:31:32;;;;;;;1056.07;953.43;;;;;;;;;;5074121;28;20119;-59
2023/08/21 11:33:58;;;;;;;1093.43;988.80;;;;;;;;;;5075772;28;20146;-61
2023/08/21 11:36:23;;;;;;;1056.77;954.37;;;;;;;;;;5059567;28;20056;-62
2023/08/21 11:38:58;;;;;;;1074.53;970.20;;;;;;;;;;5078865;28;20043;-62
2023/08/21 11:41:23;;;;;;;1083.97;978.72;;;;;;;;;;5083690;28;20024;-58
2023/08/21 11:43:48;;;;;;;1108.27;999.90;;;;;;;;;;5074697;28;20035;-59
2023/08/21 11:46:14;;;;;;;1061.57;958.47;;;;;;;;;;5077491;28;20036;-59
2023/08/21 11:48:40;;;;;;;1090.38;986.15;;;;;;;;;;5074511;28;20435;-61
2023/08/21 11:51:06;;;;;;;1044.40;942.75;;;;;;;;;;5080512;28;20051;-62
2023/08/21 11:53:39;;;;;;;1058.20;956.10;;;;;;;;;;5077777;28;20139;-59
2023/08/21 11:56:13;;;;;;;1048.78;947.53;;;;;;;;;;5075371;28;20394;-63
2023/08/21 11:58:39;;;;;;;1024.90;925.03;;;;;;;;;;5074474;28;20059;-62
2023/08/21 12:01:05;;;;;;;1033.72;933.50;;;;;;;;;;5081227;28;20099;-61
2023/08/21 12:03:31;;;;;;;1059.85;958.67;;;;;;;;;;5077110;28;20201;-59
2023/08/21 12:05:56;;;;;;;1081.60;979.20;;;;;;;;;;5073881;28;20036;-61
2023/08/21 12:08:21;;;;;;;1031.50;931.53;;;;;;;;;;5077852;28;20473;-62
2023/08/21 12:10:50;;;;;;;1042.57;946.57;;;;;;;;;;5077589;28;20449;-61
2023/08/21 12:13:15;;;;;;;1058.00;961.75;;;;;;;;;;5071764;28;20500;-62
2023/08/21 12:15:40;;;;;;;1079.83;983.93;;;;;;;;;;5070793;28;20031;-61
2023/08/21 12:18:05;;;;;;;1028.20;928.17;;;;;;;;;;5070750;28;20042;-59
2023/08/21 12:20:31;;;;;;;994.07;897.13;;;;;;;;;;5069248;28;20028;-61
2023/08/21 12:22:56;;;;;;;1021.23;921.23;;;;;;;;;;5068806;28;20028;-63
2023/08/21 12:25:22;;;;;;;1060.87;960.33;;;;;;;;;;5072196;28;20025;-58
2023/08/21 12:27:47;;;;;;;1081.78;979.53;;;;;;;;;;5071745;28;20438;-59
2023/08/21 12:30:12;;;;;;;1087.20;985.13;;;;;;;;;;5070460;28;20065;-61
2023/08/21 12:32:40;;;;;;;1058.17;956.13;;;;;;;;;;5069133;28;20020;-57
2023/08/21 12:35:06;;;;;;;1116.85;999.90;;;;;;;;;;5072831;28;20261;-60
2023/08/21 12:37:31;;;;;;;1140.25;999.90;;;;;;;;;;5074006;28;20024;-61
2023/08/21 12:39:56;;;;;;;1119.55;999.90;;;;;;;;;;5077529;28;20016;-59
2023/08/21 12:42:22;;;;;;;1145.77;999.90;;;;;;;;;;5073770;28;20023;-61
2023/08/21 12:44:47;;;;;;;1170.33;999.90;;;;;;;;;;5076965;28;20433;-57
2023/08/21 12:47:12;;;;;;;1105.33;999.90;;;;;;;;;;5077438;28;20036;-60
2023/08/21 12:49:38;;;;;;;1161.53;999.90;;;;;;;;;;5080510;28;20031;-60
2023/08/21 12:52:05;;;;;;;1145.22;999.90;;;;;;;;;;5073249;28;20048;-60
2023/08/21 12:54:30;;;;;;;1101.22;997.60;;;;;;;;;;5080716;28;20016;-61
2023/08/21 12:56:56;;;;;;;1112.23;999.90;;;;;;;;;;5073368;28;20042;-59
2023/08/21 12:59:21;;;;;;;1122.97;999.90;;;;;;;;;;5073581;28;20269;-60
2023/08/21 13:01:47;;;;;;;1103.03;999.08;;;;;;;;;;5070902;28;20038;-61
2023/08/21 13:04:12;;;;;;;1075.17;974.43;;;;;;;;;;5072457;28;20071;-61
2023/08/21 13:06:37;;;;;;;1046.43;947.57;;;;;;;;;;5075363;28;20505;-59
2023/08/21 13:09:03;;;;;;;1108.55;999.90;;;;;;;;;;5073198;28;20061;-60
2023/08/21 13:11:29;;;;;;;1047.32;948.80;;;;;;;;;;5080416;28;20404;-60
2023/08/21 13:13:55;;;;;;;1060.40;961.47;;;;;;;;;;5081486;28;20028;-60
2023/08/21 13:16:20;;;;;;;1055.45;956.47;;;;;;;;;;5091439;28;20504;-61
2023/08/21 13:18:45;;;;;;;1089.10;988.67;;;;;;;;;;5073570;28;20020;-59
2023/08/21 13:21:10;;;;;;;1051.93;953.40;;;;;;;;;;5076403;28;20676;-58
2023/08/21 13:23:36;;;;;;;1065.77;965.80;;;;;;;;;;5073774;28;20757;-63
2023/08/21 13:26:01;;;;;;;1059.57;960.27;;;;;;;;;;5072772;28;20182;-58
2023/08/21 13:28:27;;;;;;;1074.10;974.23;;;;;;;;;;5077323;28;20268;-59
2023/08/21 13:30:52;;;;;;;1050.22;951.90;;;;;;;;;;5078914;28;20020;-62
2023/08/21 13:33:18;;;;;;;1046.70;948.47;;;;;;;;;;5033493;28;20073;-60
2023/08/21 13:35:46;;;;;;;1031.07;933.63;;;;;;;;;;5074848;28;20397;-60
2023/08/21 13:38:14;;;;;;;1046.85;948.38;;;;;;;;;;5077969;28;20031;-63
2023/08/21 13:40:40;;;;;;;1057.32;957.47;;;;;;;;;;5078611;28;20040;-62